sensor_id;sensor_type;location;lat;lon;timestamp;P1;durP1;ratioP1;P2;durP2;ratioP2
71174;SDS011;58876;51.994;4.472;2024-02-14T00:00:05;1700.09;;;1700.09;;
71174;SDS011;58876;51.994;4.472;2024-02-14T00:02:35;1392.25;;;1392.25;;
71174;SDS011;58876;51.994;4.472;2024-02-14T00:05:02;1185.17;;;1185.17;;
71174;SDS011;58876;51.994;4.472;2024-02-14T00:07:28;1129.16;;;1129.16;;
71174;SDS011;58876;51.994;4.472;2024-02-14T00:09:56;1209.04;;;1209.04;;
71174;SDS011;58876;51.994;4.472;2024-02-14T00:12:22;1395.10;;;1395.10;;
71174;SDS011;58876;51.994;4.472;2024-02-14T00:14:49;1798.10;;;1798.10;;
71174;SDS011;58876;51.994;4.472;2024-02-14T00:17:15;2174.43;;;2174.43;;
71174;SDS011;58876;51.994;4.472;2024-02-14T00:19:41;2504.82;;;2504.82;;
71174;SDS011;58876;51.994;4.472;2024-02-14T00:22:06;2819.32;;;2819.32;;
71174;SDS011;58876;51.994;4.472;2024-02-14T00:24:32;2520.37;;;2520.37;;
71174;SDS011;58876;51.994;4.472;2024-02-14T00:26:57;2390.98;;;2390.98;;
71174;SDS011;58876;51.994;4.472;2024-02-14T00:29:23;1856.98;;;1856.98;;
71174;SDS011;58876;51.994;4.472;2024-02-14T00:31:51;1429.80;;;1429.80;;
71174;SDS011;58876;51.994;4.472;2024-02-14T00:34:16;6614.82;;;6599.45;;
71174;SDS011;58876;51.994;4.472;2024-02-14T00:36:41;9028.10;;;8770.08;;
71174;SDS011;58876;51.994;4.472;2024-02-14T00:39:07;8067.76;;;7878.72;;
71174;SDS011;58876;51.994;4.472;2024-02-14T00:41:35;3362.22;;;3362.22;;
71174;SDS011;58876;51.994;4.472;2024-02-14T00:44:01;2292.61;;;2292.61;;
71174;SDS011;58876;51.994;4.472;2024-02-14T00:46:28;3385.48;;;3385.48;;
71174;SDS011;58876;51.994;4.472;2024-02-14T00:48:54;8452.38;;;7926.64;;
71174;SDS011;58876;51.994;4.472;2024-02-14T00:51:21;12555.34;;;10478.58;;
71174;SDS011;58876;51.994;4.472;2024-02-14T00:53:47;10135.55;;;8796.10;;
71174;SDS011;58876;51.994;4.472;2024-02-14T00:56:12;10615.22;;;9108.64;;
71174;SDS011;58876;51.994;4.472;2024-02-14T00:58:38;15510.92;;;12240.11;;
71174;SDS011;58876;51.994;4.472;2024-02-14T01:01:04;11341.74;;;9952.26;;
71174;SDS011;58876;51.994;4.472;2024-02-14T01:03:30;12346.03;;;10483.88;;
71174;SDS011;58876;51.994;4.472;2024-02-14T01:05:56;6917.12;;;6910.60;;
71174;SDS011;58876;51.994;4.472;2024-02-14T01:08:21;4065.84;;;4065.84;;
71174;SDS011;58876;51.994;4.472;2024-02-14T01:10:47;4898.46;;;4898.46;;
71174;SDS011;58876;51.994;4.472;2024-02-14T01:13:14;1968.92;;;1968.92;;
71174;SDS011;58876;51.994;4.472;2024-02-14T01:15:39;981.67;;;981.67;;
71174;SDS011;58876;51.994;4.472;2024-02-14T01:18:04;2506.32;;;2506.32;;
71174;SDS011;58876;51.994;4.472;2024-02-14T01:20:30;1032.99;;;1032.99;;
71174;SDS011;58876;51.994;4.472;2024-02-14T01:22:55;280.85;;;280.85;;
71174;SDS011;58876;51.994;4.472;2024-02-14T01:25:21;120.25;;;120.25;;
71174;SDS011;58876;51.994;4.472;2024-02-14T01:27:46;557.84;;;557.84;;
71174;SDS011;58876;51.994;4.472;2024-02-14T01:30:14;1521.10;;;1521.10;;
71174;SDS011;58876;51.994;4.472;2024-02-14T01:32:40;4342.98;;;4342.98;;
71174;SDS011;58876;51.994;4.472;2024-02-14T01:35:05;1340.60;;;1340.60;;
71174;SDS011;58876;51.994;4.472;2024-02-14T01:37:31;3929.33;;;3929.33;;
71174;SDS011;58876;51.994;4.472;2024-02-14T01:39:57;5027.28;;;5027.28;;
71174;SDS011;58876;51.994;4.472;2024-02-14T01:42:22;3001.39;;;3001.39;;
71174;SDS011;58876;51.994;4.472;2024-02-14T01:44:47;4977.42;;;4977.42;;
71174;SDS011;58876;51.994;4.472;2024-02-14T01:47:13;5839.26;;;5716.85;;
71174;SDS011;58876;51.994;4.472;2024-02-14T01:49:39;1027.70;;;1027.36;;
71174;SDS011;58876;51.994;4.472;2024-02-14T01:52:08;630.90;;;630.90;;
71174;SDS011;58876;51.994;4.472;2024-02-14T01:54:34;3529.99;;;3529.99;;
71174;SDS011;58876;51.994;4.472;2024-02-14T01:57:00;4664.09;;;4664.09;;
71174;SDS011;58876;51.994;4.472;2024-02-14T01:59:26;4606.80;;;4606.80;;
71174;SDS011;58876;51.994;4.472;2024-02-14T02:01:52;4501.13;;;4501.13;;
71174;SDS011;58876;51.994;4.472;2024-02-14T02:04:18;4601.96;;;4601.96;;
71174;SDS011;58876;51.994;4.472;2024-02-14T02:06:44;5913.63;;;5623.05;;
71174;SDS011;58876;51.994;4.472;2024-02-14T02:09:09;7691.70;;;6487.94;;
71174;SDS011;58876;51.994;4.472;2024-02-14T02:11:48;7612.16;;;6370.60;;
71174;SDS011;58876;51.994;4.472;2024-02-14T02:14:15;3023.01;;;3018.54;;
71174;SDS011;58876;51.994;4.472;2024-02-14T02:16:41;490.61;;;490.61;;
71174;SDS011;58876;51.994;4.472;2024-02-14T02:19:07;224.57;;;224.57;;
71174;SDS011;58876;51.994;4.472;2024-02-14T02:21:34;195.73;;;195.73;;
71174;SDS011;58876;51.994;4.472;2024-02-14T02:24:00;934.40;;;934.40;;
71174;SDS011;58876;51.994;4.472;2024-02-14T02:26:27;795.69;;;795.69;;
71174;SDS011;58876;51.994;4.472;2024-02-14T02:28:52;1511.25;;;1511.25;;
71174;SDS011;58876;51.994;4.472;2024-02-14T02:31:18;1846.05;;;1846.05;;
71174;SDS011;58876;51.994;4.472;2024-02-14T02:33:44;748.81;;;748.81;;
71174;SDS011;58876;51.994;4.472;2024-02-14T02:36:09;252.82;;;252.82;;
71174;SDS011;58876;51.994;4.472;2024-02-14T02:38:35;530.34;;;530.34;;
71174;SDS011;58876;51.994;4.472;2024-02-14T02:41:02;781.14;;;781.14;;
71174;SDS011;58876;51.994;4.472;2024-02-14T02:43:29;1095.57;;;1095.57;;
71174;SDS011;58876;51.994;4.472;2024-02-14T02:45:55;1177.07;;;1177.07;;
71174;SDS011;58876;51.994;4.472;2024-02-14T02:48:22;1008.53;;;1008.53;;
71174;SDS011;58876;51.994;4.472;2024-02-14T02:50:48;788.88;;;788.88;;
71174;SDS011;58876;51.994;4.472;2024-02-14T02:53:15;101.72;;;101.72;;
71174;SDS011;58876;51.994;4.472;2024-02-14T02:55:41;82.80;;;82.80;;
71174;SDS011;58876;51.994;4.472;2024-02-14T02:58:06;78.79;;;78.79;;
71174;SDS011;58876;51.994;4.472;2024-02-14T03:00:32;133.47;;;133.47;;
71174;SDS011;58876;51.994;4.472;2024-02-14T03:02:58;229.37;;;229.37;;
71174;SDS011;58876;51.994;4.472;2024-02-14T03:05:25;197.85;;;197.85;;
71174;SDS011;58876;51.994;4.472;2024-02-14T03:07:50;111.19;;;111.19;;
71174;SDS011;58876;51.994;4.472;2024-02-14T03:10:18;191.98;;;191.98;;
71174;SDS011;58876;51.994;4.472;2024-02-14T03:12:49;193.40;;;193.40;;
71174;SDS011;58876;51.994;4.472;2024-02-14T03:15:15;613.28;;;613.28;;
71174;SDS011;58876;51.994;4.472;2024-02-14T03:17:41;845.48;;;845.48;;
71174;SDS011;58876;51.994;4.472;2024-02-14T03:20:11;1334.19;;;1334.19;;
71174;SDS011;58876;51.994;4.472;2024-02-14T03:22:40;1595.84;;;1595.84;;
71174;SDS011;58876;51.994;4.472;2024-02-14T03:25:19;971.38;;;971.38;;
71174;SDS011;58876;51.994;4.472;2024-02-14T03:27:45;599.32;;;599.32;;
71174;SDS011;58876;51.994;4.472;2024-02-14T03:30:12;782.25;;;782.25;;
71174;SDS011;58876;51.994;4.472;2024-02-14T03:32:41;1287.83;;;1287.83;;
71174;SDS011;58876;51.994;4.472;2024-02-14T03:35:10;1297.06;;;1297.06;;
71174;SDS011;58876;51.994;4.472;2024-02-14T03:37:38;1036.01;;;1036.01;;
71174;SDS011;58876;51.994;4.472;2024-02-14T03:40:05;610.85;;;610.85;;
71174;SDS011;58876;51.994;4.472;2024-02-14T03:42:32;534.14;;;534.14;;
71174;SDS011;58876;51.994;4.472;2024-02-14T03:44:59;439.32;;;439.32;;
71174;SDS011;58876;51.994;4.472;2024-02-14T03:47:28;319.32;;;319.32;;
71174;SDS011;58876;51.994;4.472;2024-02-14T03:49:54;275.32;;;275.32;;
71174;SDS011;58876;51.994;4.472;2024-02-14T03:52:20;111.15;;;111.15;;
71174;SDS011;58876;51.994;4.472;2024-02-14T03:54:47;95.67;;;95.67;;
71174;SDS011;58876;51.994;4.472;2024-02-14T03:57:13;228.60;;;228.60;;
71174;SDS011;58876;51.994;4.472;2024-02-14T03:59:38;84.85;;;84.85;;
71174;SDS011;58876;51.994;4.472;2024-02-14T04:02:04;361.80;;;361.80;;
71174;SDS011;58876;51.994;4.472;2024-02-14T04:04:32;1923.77;;;1923.77;;
71174;SDS011;58876;51.994;4.472;2024-02-14T04:06:58;1608.61;;;1608.61;;
71174;SDS011;58876;51.994;4.472;2024-02-14T04:09:26;1895.55;;;1895.55;;
71174;SDS011;58876;51.994;4.472;2024-02-14T04:11:51;696.69;;;696.69;;
71174;SDS011;58876;51.994;4.472;2024-02-14T04:14:17;602.39;;;602.39;;
71174;SDS011;58876;51.994;4.472;2024-02-14T04:16:42;655.34;;;655.34;;
71174;SDS011;58876;51.994;4.472;2024-02-14T04:19:08;940.76;;;940.76;;
71174;SDS011;58876;51.994;4.472;2024-02-14T04:21:36;1597.03;;;1597.03;;
71174;SDS011;58876;51.994;4.472;2024-02-14T04:24:05;1497.08;;;1497.08;;
71174;SDS011;58876;51.994;4.472;2024-02-14T04:26:31;1832.25;;;1832.25;;
71174;SDS011;58876;51.994;4.472;2024-02-14T04:28:57;1804.99;;;1804.99;;
71174;SDS011;58876;51.994;4.472;2024-02-14T04:31:22;615.61;;;615.61;;
71174;SDS011;58876;51.994;4.472;2024-02-14T04:33:48;553.86;;;553.86;;
71174;SDS011;58876;51.994;4.472;2024-02-14T04:36:17;574.42;;;574.42;;
71174;SDS011;58876;51.994;4.472;2024-02-14T04:38:46;832.08;;;832.08;;
71174;SDS011;58876;51.994;4.472;2024-02-14T04:41:12;1117.83;;;1117.83;;
71174;SDS011;58876;51.994;4.472;2024-02-14T04:43:39;974.13;;;974.13;;
71174;SDS011;58876;51.994;4.472;2024-02-14T04:46:05;1268.07;;;1268.07;;
71174;SDS011;58876;51.994;4.472;2024-02-14T04:48:32;1626.84;;;1626.84;;
71174;SDS011;58876;51.994;4.472;2024-02-14T04:50:58;762.03;;;762.03;;
71174;SDS011;58876;51.994;4.472;2024-02-14T04:53:27;829.89;;;829.89;;
71174;SDS011;58876;51.994;4.472;2024-02-14T04:55:53;2750.95;;;2750.95;;
71174;SDS011;58876;51.994;4.472;2024-02-14T04:58:19;3424.01;;;3424.01;;
71174;SDS011;58876;51.994;4.472;2024-02-14T05:00:45;1653.10;;;1653.10;;
71174;SDS011;58876;51.994;4.472;2024-02-14T05:03:10;1381.68;;;1381.68;;
71174;SDS011;58876;51.994;4.472;2024-02-14T05:05:36;1012.13;;;1012.13;;
71174;SDS011;58876;51.994;4.472;2024-02-14T05:08:01;1269.23;;;1269.23;;
71174;SDS011;58876;51.994;4.472;2024-02-14T05:10:30;367.30;;;367.30;;
71174;SDS011;58876;51.994;4.472;2024-02-14T05:12:59;549.84;;;549.84;;
71174;SDS011;58876;51.994;4.472;2024-02-14T05:15:24;1350.69;;;1350.69;;
71174;SDS011;58876;51.994;4.472;2024-02-14T05:17:50;3026.46;;;3026.46;;
71174;SDS011;58876;51.994;4.472;2024-02-14T05:20:17;3997.67;;;3997.67;;
71174;SDS011;58876;51.994;4.472;2024-02-14T05:22:42;3262.54;;;3262.54;;
71174;SDS011;58876;51.994;4.472;2024-02-14T05:25:08;5288.65;;;5194.52;;
71174;SDS011;58876;51.994;4.472;2024-02-14T05:27:34;5467.49;;;5413.44;;
71174;SDS011;58876;51.994;4.472;2024-02-14T05:30:01;3731.93;;;3731.93;;
71174;SDS011;58876;51.994;4.472;2024-02-14T05:32:30;5034.59;;;5034.59;;
71174;SDS011;58876;51.994;4.472;2024-02-14T05:34:59;4019.35;;;4019.35;;
71174;SDS011;58876;51.994;4.472;2024-02-14T05:37:24;3504.60;;;3504.60;;
71174;SDS011;58876;51.994;4.472;2024-02-14T05:39:52;1969.33;;;1969.33;;
71174;SDS011;58876;51.994;4.472;2024-02-14T05:42:18;1931.23;;;1931.23;;
71174;SDS011;58876;51.994;4.472;2024-02-14T05:44:44;2731.90;;;2731.90;;
71174;SDS011;58876;51.994;4.472;2024-02-14T05:47:10;2633.78;;;2633.78;;
71174;SDS011;58876;51.994;4.472;2024-02-14T05:49:39;896.75;;;896.75;;
71174;SDS011;58876;51.994;4.472;2024-02-14T05:52:08;790.13;;;790.13;;
71174;SDS011;58876;51.994;4.472;2024-02-14T05:54:34;1147.74;;;1147.74;;
71174;SDS011;58876;51.994;4.472;2024-02-14T05:57:00;980.11;;;980.11;;
71174;SDS011;58876;51.994;4.472;2024-02-14T05:59:27;448.28;;;448.28;;
71174;SDS011;58876;51.994;4.472;2024-02-14T06:01:53;255.59;;;255.59;;
71174;SDS011;58876;51.994;4.472;2024-02-14T06:04:18;206.96;;;206.96;;
71174;SDS011;58876;51.994;4.472;2024-02-14T06:06:44;279.56;;;279.56;;
71174;SDS011;58876;51.994;4.472;2024-02-14T06:09:09;325.62;;;325.62;;
71174;SDS011;58876;51.994;4.472;2024-02-14T06:11:36;316.40;;;316.40;;
71174;SDS011;58876;51.994;4.472;2024-02-14T06:14:07;229.15;;;229.15;;
71174;SDS011;58876;51.994;4.472;2024-02-14T06:16:34;229.45;;;229.45;;
71174;SDS011;58876;51.994;4.472;2024-02-14T06:19:00;253.88;;;253.88;;
71174;SDS011;58876;51.994;4.472;2024-02-14T06:21:26;303.00;;;303.00;;
71174;SDS011;58876;51.994;4.472;2024-02-14T06:23:52;310.87;;;310.87;;
71174;SDS011;58876;51.994;4.472;2024-02-14T06:26:18;238.17;;;238.17;;
71174;SDS011;58876;51.994;4.472;2024-02-14T06:28:44;313.98;;;313.98;;
71174;SDS011;58876;51.994;4.472;2024-02-14T06:31:10;375.69;;;375.69;;
71174;SDS011;58876;51.994;4.472;2024-02-14T06:33:35;283.48;;;283.48;;
71174;SDS011;58876;51.994;4.472;2024-02-14T06:36:01;270.99;;;270.99;;
71174;SDS011;58876;51.994;4.472;2024-02-14T06:38:27;228.39;;;228.39;;
71174;SDS011;58876;51.994;4.472;2024-02-14T06:40:52;153.82;;;153.82;;
71174;SDS011;58876;51.994;4.472;2024-02-14T06:43:18;226.48;;;226.48;;
71174;SDS011;58876;51.994;4.472;2024-02-14T06:45:44;194.65;;;194.65;;
71174;SDS011;58876;51.994;4.472;2024-02-14T06:48:10;544.08;;;544.08;;
71174;SDS011;58876;51.994;4.472;2024-02-14T06:50:35;506.31;;;506.31;;
71174;SDS011;58876;51.994;4.472;2024-02-14T06:53:01;607.89;;;607.89;;
71174;SDS011;58876;51.994;4.472;2024-02-14T06:55:26;1037.63;;;1037.63;;
71174;SDS011;58876;51.994;4.472;2024-02-14T06:57:53;1139.66;;;1139.66;;
71174;SDS011;58876;51.994;4.472;2024-02-14T07:00:21;1206.75;;;1206.75;;
71174;SDS011;58876;51.994;4.472;2024-02-14T07:02:47;1282.82;;;1282.82;;
71174;SDS011;58876;51.994;4.472;2024-02-14T07:05:13;1392.61;;;1392.61;;
71174;SDS011;58876;51.994;4.472;2024-02-14T07:07:40;1043.09;;;1043.09;;
71174;SDS011;58876;51.994;4.472;2024-02-14T07:10:06;805.21;;;805.21;;
71174;SDS011;58876;51.994;4.472;2024-02-14T07:12:32;739.32;;;739.32;;
71174;SDS011;58876;51.994;4.472;2024-02-14T07:14:57;652.94;;;652.94;;
71174;SDS011;58876;51.994;4.472;2024-02-14T07:17:23;661.99;;;661.99;;
71174;SDS011;58876;51.994;4.472;2024-02-14T07:19:49;689.33;;;689.33;;
71174;SDS011;58876;51.994;4.472;2024-02-14T07:22:17;485.64;;;485.64;;
71174;SDS011;58876;51.994;4.472;2024-02-14T07:24:44;576.04;;;576.04;;
71174;SDS011;58876;51.994;4.472;2024-02-14T07:27:11;593.55;;;593.55;;
71174;SDS011;58876;51.994;4.472;2024-02-14T07:29:39;508.30;;;508.30;;
71174;SDS011;58876;51.994;4.472;2024-02-14T07:32:05;524.23;;;524.23;;
71174;SDS011;58876;51.994;4.472;2024-02-14T07:34:31;484.55;;;484.55;;
71174;SDS011;58876;51.994;4.472;2024-02-14T07:36:57;521.60;;;521.60;;
71174;SDS011;58876;51.994;4.472;2024-02-14T07:39:23;654.92;;;654.92;;
71174;SDS011;58876;51.994;4.472;2024-02-14T07:41:48;830.53;;;830.53;;
71174;SDS011;58876;51.994;4.472;2024-02-14T07:44:14;969.41;;;969.41;;
71174;SDS011;58876;51.994;4.472;2024-02-14T07:46:40;1008.60;;;1008.60;;
71174;SDS011;58876;51.994;4.472;2024-02-14T07:49:05;1726.91;;;1726.91;;
71174;SDS011;58876;51.994;4.472;2024-02-14T07:51:31;1672.07;;;1672.07;;
71174;SDS011;58876;51.994;4.472;2024-02-14T07:54:04;721.12;;;721.12;;
71174;SDS011;58876;51.994;4.472;2024-02-14T07:56:30;341.43;;;341.43;;
71174;SDS011;58876;51.994;4.472;2024-02-14T07:58:56;211.25;;;211.25;;
71174;SDS011;58876;51.994;4.472;2024-02-14T08:01:22;201.88;;;201.88;;
71174;SDS011;58876;51.994;4.472;2024-02-14T08:03:47;271.38;;;271.38;;
71174;SDS011;58876;51.994;4.472;2024-02-14T08:06:13;416.06;;;416.06;;
71174;SDS011;58876;51.994;4.472;2024-02-14T08:08:39;639.02;;;639.02;;
71174;SDS011;58876;51.994;4.472;2024-02-14T08:11:04;1034.10;;;1034.10;;
71174;SDS011;58876;51.994;4.472;2024-02-14T08:13:30;690.79;;;690.79;;
71174;SDS011;58876;51.994;4.472;2024-02-14T08:15:55;674.82;;;674.82;;
71174;SDS011;58876;51.994;4.472;2024-02-14T08:18:21;581.28;;;581.28;;
71174;SDS011;58876;51.994;4.472;2024-02-14T08:20:48;686.78;;;686.78;;
71174;SDS011;58876;51.994;4.472;2024-02-14T08:23:13;740.33;;;740.33;;
71174;SDS011;58876;51.994;4.472;2024-02-14T08:25:39;934.15;;;934.15;;
71174;SDS011;58876;51.994;4.472;2024-02-14T08:28:06;1171.39;;;1171.39;;
71174;SDS011;58876;51.994;4.472;2024-02-14T08:30:33;1331.17;;;1331.17;;
71174;SDS011;58876;51.994;4.472;2024-02-14T08:32:59;1990.68;;;1990.68;;
71174;SDS011;58876;51.994;4.472;2024-02-14T08:35:27;2039.67;;;2039.67;;
71174;SDS011;58876;51.994;4.472;2024-02-14T08:37:53;1597.31;;;1597.31;;
71174;SDS011;58876;51.994;4.472;2024-02-14T08:40:18;1068.43;;;1068.43;;
71174;SDS011;58876;51.994;4.472;2024-02-14T08:42:43;1238.11;;;1238.11;;
71174;SDS011;58876;51.994;4.472;2024-02-14T08:45:09;797.48;;;797.48;;
71174;SDS011;58876;51.994;4.472;2024-02-14T08:47:35;412.48;;;412.48;;
71174;SDS011;58876;51.994;4.472;2024-02-14T08:50:03;474.10;;;474.10;;
71174;SDS011;58876;51.994;4.472;2024-02-14T08:52:29;419.31;;;419.31;;
71174;SDS011;58876;51.994;4.472;2024-02-14T08:54:54;397.64;;;397.64;;
71174;SDS011;58876;51.994;4.472;2024-02-14T08:57:20;426.10;;;426.10;;
71174;SDS011;58876;51.994;4.472;2024-02-14T08:59:46;459.13;;;459.13;;
71174;SDS011;58876;51.994;4.472;2024-02-14T09:02:13;483.27;;;483.27;;
71174;SDS011;58876;51.994;4.472;2024-02-14T09:04:39;522.32;;;522.32;;
71174;SDS011;58876;51.994;4.472;2024-02-14T09:07:06;506.01;;;506.01;;
71174;SDS011;58876;51.994;4.472;2024-02-14T09:09:33;417.55;;;417.55;;
71174;SDS011;58876;51.994;4.472;2024-02-14T09:11:58;632.47;;;632.47;;
71174;SDS011;58876;51.994;4.472;2024-02-14T09:14:30;352.77;;;352.77;;
71174;SDS011;58876;51.994;4.472;2024-02-14T09:16:56;179.50;;;179.50;;
71174;SDS011;58876;51.994;4.472;2024-02-14T09:19:22;107.89;;;107.89;;
71174;SDS011;58876;51.994;4.472;2024-02-14T09:21:48;158.29;;;158.29;;
71174;SDS011;58876;51.994;4.472;2024-02-14T09:24:14;488.65;;;488.65;;
71174;SDS011;58876;51.994;4.472;2024-02-14T09:26:40;1099.08;;;1099.08;;
71174;SDS011;58876;51.994;4.472;2024-02-14T09:29:05;1537.07;;;1537.07;;
71174;SDS011;58876;51.994;4.472;2024-02-14T09:31:31;1352.73;;;1352.73;;
71174;SDS011;58876;51.994;4.472;2024-02-14T09:33:56;855.74;;;855.74;;
71174;SDS011;58876;51.994;4.472;2024-02-14T09:36:23;327.69;;;327.69;;
71174;SDS011;58876;51.994;4.472;2024-02-14T09:38:54;247.92;;;247.92;;
71174;SDS011;58876;51.994;4.472;2024-02-14T09:44:03;136.51;;;136.51;;
71174;SDS011;58876;51.994;4.472;2024-02-14T09:46:29;145.53;;;145.53;;
71174;SDS011;58876;51.994;4.472;2024-02-14T09:48:58;300.58;;;300.58;;
71174;SDS011;58876;51.994;4.472;2024-02-14T09:51:27;319.73;;;319.73;;
71174;SDS011;58876;51.994;4.472;2024-02-14T09:53:54;557.98;;;557.98;;
71174;SDS011;58876;51.994;4.472;2024-02-14T09:56:28;160.54;;;160.54;;
71174;SDS011;58876;51.994;4.472;2024-02-14T09:58:54;175.20;;;175.20;;
71174;SDS011;58876;51.994;4.472;2024-02-14T10:01:25;248.40;;;248.40;;
71174;SDS011;58876;51.994;4.472;2024-02-14T10:03:52;237.28;;;237.28;;
71174;SDS011;58876;51.994;4.472;2024-02-14T10:06:18;277.21;;;277.21;;
71174;SDS011;58876;51.994;4.472;2024-02-14T10:08:47;259.95;;;259.95;;
71174;SDS011;58876;51.994;4.472;2024-02-14T10:11:16;256.81;;;256.81;;
71174;SDS011;58876;51.994;4.472;2024-02-14T10:13:46;332.18;;;332.18;;
71174;SDS011;58876;51.994;4.472;2024-02-14T10:16:22;331.83;;;331.83;;
71174;SDS011;58876;51.994;4.472;2024-02-14T10:18:47;265.40;;;265.40;;
71174;SDS011;58876;51.994;4.472;2024-02-14T10:21:17;1010.88;;;1010.88;;
71174;SDS011;58876;51.994;4.472;2024-02-14T10:23:44;654.57;;;654.57;;
71174;SDS011;58876;51.994;4.472;2024-02-14T10:26:14;147.28;;;147.28;;
71174;SDS011;58876;51.994;4.472;2024-02-14T10:28:44;217.29;;;217.29;;
71174;SDS011;58876;51.994;4.472;2024-02-14T10:31:26;352.48;;;352.48;;
71174;SDS011;58876;51.994;4.472;2024-02-14T10:33:52;173.27;;;173.27;;
71174;SDS011;58876;51.994;4.472;2024-02-14T10:36:23;603.44;;;603.44;;
71174;SDS011;58876;51.994;4.472;2024-02-14T10:38:50;789.24;;;789.24;;
71174;SDS011;58876;51.994;4.472;2024-02-14T10:41:23;620.90;;;620.90;;
71174;SDS011;58876;51.994;4.472;2024-02-14T10:43:49;305.32;;;305.32;;
71174;SDS011;58876;51.994;4.472;2024-02-14T10:46:24;158.15;;;158.15;;
71174;SDS011;58876;51.994;4.472;2024-02-14T10:48:58;74.02;;;74.02;;
71174;SDS011;58876;51.994;4.472;2024-02-14T10:51:31;56.28;;;56.28;;
71174;SDS011;58876;51.994;4.472;2024-02-14T10:53:58;51.24;;;51.24;;
71174;SDS011;58876;51.994;4.472;2024-02-14T10:56:28;56.98;;;56.98;;
71174;SDS011;58876;51.994;4.472;2024-02-14T10:59:00;62.57;;;62.57;;
71174;SDS011;58876;51.994;4.472;2024-02-14T11:01:28;55.88;;;55.88;;
71174;SDS011;58876;51.994;4.472;2024-02-14T11:03:58;28.32;;;28.32;;
71174;SDS011;58876;51.994;4.472;2024-02-14T11:06:25;24.87;;;24.87;;
71174;SDS011;58876;51.994;4.472;2024-02-14T11:09:00;31.09;;;31.09;;
71174;SDS011;58876;51.994;4.472;2024-02-14T11:11:31;42.65;;;42.65;;
71174;SDS011;58876;51.994;4.472;2024-02-14T11:13:57;66.18;;;66.18;;
71174;SDS011;58876;51.994;4.472;2024-02-14T11:16:26;63.72;;;63.72;;
71174;SDS011;58876;51.994;4.472;2024-02-14T11:19:09;117.51;;;117.51;;
71174;SDS011;58876;51.994;4.472;2024-02-14T11:21:40;50.54;;;50.54;;
71174;SDS011;58876;51.994;4.472;2024-02-14T11:24:11;75.21;;;75.21;;
71174;SDS011;58876;51.994;4.472;2024-02-14T11:29:15;198.71;;;198.71;;
71174;SDS011;58876;51.994;4.472;2024-02-14T11:31:41;154.87;;;154.87;;
71174;SDS011;58876;51.994;4.472;2024-02-14T11:34:08;144.61;;;144.61;;
71174;SDS011;58876;51.994;4.472;2024-02-14T11:36:37;84.63;;;84.63;;
71174;SDS011;58876;51.994;4.472;2024-02-14T11:39:03;366.61;;;366.61;;
71174;SDS011;58876;51.994;4.472;2024-02-14T11:41:33;798.34;;;798.34;;
71174;SDS011;58876;51.994;4.472;2024-02-14T11:44:05;600.66;;;600.66;;
71174;SDS011;58876;51.994;4.472;2024-02-14T11:46:31;1175.28;;;1175.28;;
71174;SDS011;58876;51.994;4.472;2024-02-14T11:48:58;877.99;;;877.99;;
71174;SDS011;58876;51.994;4.472;2024-02-14T11:51:26;40.08;;;40.08;;
71174;SDS011;58876;51.994;4.472;2024-02-14T11:53:53;10.74;;;10.74;;
71174;SDS011;58876;51.994;4.472;2024-02-14T11:56:20;24.22;;;24.22;;
71174;SDS011;58876;51.994;4.472;2024-02-14T11:58:47;19.56;;;19.56;;
71174;SDS011;58876;51.994;4.472;2024-02-14T12:01:16;18.62;;;18.62;;
71174;SDS011;58876;51.994;4.472;2024-02-14T12:03:43;37.00;;;37.00;;
71174;SDS011;58876;51.994;4.472;2024-02-14T12:06:09;25.45;;;25.45;;
71174;SDS011;58876;51.994;4.472;2024-02-14T12:08:36;19.71;;;19.71;;
71174;SDS011;58876;51.994;4.472;2024-02-14T12:11:02;18.24;;;18.24;;
71174;SDS011;58876;51.994;4.472;2024-02-14T12:13:30;22.30;;;22.30;;
71174;SDS011;58876;51.994;4.472;2024-02-14T12:15:57;30.59;;;30.59;;
71174;SDS011;58876;51.994;4.472;2024-02-14T12:18:23;46.56;;;46.56;;
71174;SDS011;58876;51.994;4.472;2024-02-14T12:20:49;87.90;;;87.90;;
71174;SDS011;58876;51.994;4.472;2024-02-14T12:23:16;46.97;;;46.97;;
71174;SDS011;58876;51.994;4.472;2024-02-14T12:25:42;81.62;;;81.62;;
71174;SDS011;58876;51.994;4.472;2024-02-14T12:28:13;81.32;;;81.32;;
71174;SDS011;58876;51.994;4.472;2024-02-14T12:33:21;34.34;;;34.34;;
71174;SDS011;58876;51.994;4.472;2024-02-14T12:35:48;15.77;;;15.77;;
71174;SDS011;58876;51.994;4.472;2024-02-14T12:38:15;20.50;;;20.50;;
71174;SDS011;58876;51.994;4.472;2024-02-14T12:40:44;21.99;;;21.99;;
71174;SDS011;58876;51.994;4.472;2024-02-14T12:43:11;24.26;;;24.26;;
71174;SDS011;58876;51.994;4.472;2024-02-14T12:45:38;26.38;;;26.38;;
71174;SDS011;58876;51.994;4.472;2024-02-14T12:48:07;296.29;;;296.29;;
71174;SDS011;58876;51.994;4.472;2024-02-14T12:50:34;461.06;;;461.06;;
71174;SDS011;58876;51.994;4.472;2024-02-14T12:53:02;844.37;;;844.37;;
71174;SDS011;58876;51.994;4.472;2024-02-14T12:55:27;674.81;;;674.81;;
71174;SDS011;58876;51.994;4.472;2024-02-14T12:57:57;1048.51;;;1048.51;;
71174;SDS011;58876;51.994;4.472;2024-02-14T13:00:26;1685.09;;;1685.09;;
71174;SDS011;58876;51.994;4.472;2024-02-14T13:02:54;2043.48;;;2043.48;;
71174;SDS011;58876;51.994;4.472;2024-02-14T13:05:20;1914.37;;;1914.37;;
71174;SDS011;58876;51.994;4.472;2024-02-14T13:07:51;1768.14;;;1768.14;;
71174;SDS011;58876;51.994;4.472;2024-02-14T13:10:16;1274.67;;;1274.67;;
71174;SDS011;58876;51.994;4.472;2024-02-14T13:12:42;835.15;;;835.15;;
71174;SDS011;58876;51.994;4.472;2024-02-14T13:15:10;1077.61;;;1077.61;;
71174;SDS011;58876;51.994;4.472;2024-02-14T13:17:43;957.02;;;957.02;;
71174;SDS011;58876;51.994;4.472;2024-02-14T13:20:28;686.27;;;686.27;;
71174;SDS011;58876;51.994;4.472;2024-02-14T13:23:32;500.90;;;500.90;;
71174;SDS011;58876;51.994;4.472;2024-02-14T13:25:58;536.14;;;536.14;;
71174;SDS011;58876;51.994;4.472;2024-02-14T13:28:31;619.04;;;619.04;;
71174;SDS011;58876;51.994;4.472;2024-02-14T13:34:22;592.04;;;592.04;;
71174;SDS011;58876;51.994;4.472;2024-02-14T13:37:11;418.65;;;418.65;;
71174;SDS011;58876;51.994;4.472;2024-02-14T13:39:36;538.28;;;538.28;;
71174;SDS011;58876;51.994;4.472;2024-02-14T13:42:06;779.93;;;779.93;;
71174;SDS011;58876;51.994;4.472;2024-02-14T13:44:33;601.20;;;601.20;;
71174;SDS011;58876;51.994;4.472;2024-02-14T13:46:58;974.57;;;974.57;;
71174;SDS011;58876;51.994;4.472;2024-02-14T13:49:24;1184.67;;;1184.67;;
71174;SDS011;58876;51.994;4.472;2024-02-14T13:51:51;738.49;;;738.49;;
71174;SDS011;58876;51.994;4.472;2024-02-14T13:54:20;392.01;;;392.01;;
71174;SDS011;58876;51.994;4.472;2024-02-14T13:56:48;303.59;;;303.59;;
71174;SDS011;58876;51.994;4.472;2024-02-14T13:59:21;291.68;;;291.68;;
71174;SDS011;58876;51.994;4.472;2024-02-14T14:02:00;430.24;;;430.24;;